Time;durP1;ratioP1;P1;durP2;ratioP2;P2;SDS_P1;SDS_P2;PMS_P1;PMS_P2;Temp;Humidity;BMP_temperature;BMP_pressure;BME280_temperature;BME280_humidity;BME280_pressure;Samples;Min_cycle;Max_cycle;Signal;HPM_P1;HPM_P2
2023/08/28 00:01:43;;;;;;;;;;;24.30;90.80;;;;;;5054513;28;19913;-73
2023/08/28 00:04:09;;;;;;;;;;;24.30;90.80;;;;;;5054771;28;20271;-68
2023/08/28 00:06:34;;;;;;;;;;;24.30;90.80;;;;;;5054967;28;19913;-72
2023/08/28 00:08:59;;;;;;;;;;;24.30;90.80;;;;;;5054570;28;19916;-73
2023/08/28 00:11:25;;;;;;;;;;;24.30;90.80;;;;;;5054841;28;20023;-74
2023/08/28 00:13:50;;;;;;;;;;;24.30;90.80;;;;;;5054518;28;19915;-73
2023/08/28 00:16:16;;;;;;;;;;;24.30;90.80;;;;;;5054524;28;19996;-71
2023/08/28 00:18:41;;;;;;;;;;;24.30;90.80;;;;;;5036644;28;19909;-70
2023/08/28 00:21:07;;;;;;;;;;;24.30;90.80;;;;;;5054265;28;19935;-73
2023/08/28 00:23:33;;;;;;;;;;;24.30;90.80;;;;;;5054091;28;20050;-71
2023/08/28 00:26:01;;;;;;;;;;;24.30;90.80;;;;;;5053286;28;19962;-72
2023/08/28 00:28:27;;;;;;;;;;;24.30;90.80;;;;;;5054518;28;19913;-72
2023/08/28 00:30:52;;;;;;;;;;;24.30;90.80;;;;;;5054639;28;20007;-74
2023/08/28 00:33:18;;;;;;;;;;;24.30;90.80;;;;;;5053936;28;19909;-73
2023/08/28 00:35:43;;;;;;;;;;;24.20;90.80;;;;;;5053954;28;19909;-74
2023/08/28 00:38:09;;;;;;;;;;;24.30;90.80;;;;;;5054099;28;19931;-72
2023/08/28 00:40:41;;;;;;;;;;;24.30;91.10;;;;;;5054075;28;19939;-71
2023/08/28 00:43:08;;;;;;;;;;;24.30;90.80;;;;;;5053853;28;19909;-71
2023/08/28 00:45:34;;;;;;;;;;;24.20;90.80;;;;;;5053869;28;19951;-74
2023/08/28 00:48:00;;;;;;;;;;;24.20;90.80;;;;;;5054000;28;19929;-73
2023/08/28 00:50:26;;;;;;;;;;;24.20;90.80;;;;;;5053990;28;19913;-73
2023/08/28 00:52:51;;;;;;;;;;;24.30;90.80;;;;;;5053899;28;20019;-73
2023/08/28 00:55:17;;;;;;;;;;;24.20;90.80;;;;;;5053901;28;19912;-72
2023/08/28 00:57:42;;;;;;;;;;;24.20;90.80;;;;;;5054193;28;20259;-73
2023/08/28 01:00:08;;;;;;;;;;;24.20;90.80;;;;;;5053884;28;19919;-73
2023/08/28 01:02:34;;;;;;;;;;;24.30;90.80;;;;;;5053544;28;19909;-71
2023/08/28 01:04:59;;;;;;;;;;;24.20;90.80;;;;;;5053800;28;20267;-73
2023/08/28 01:07:30;;;;;;;;;;;24.20;90.80;;;;;;5053774;28;19916;-71
2023/08/28 01:09:55;;;;;;;;;;;24.20;90.80;;;;;;5053732;28;19972;-70
2023/08/28 01:12:39;;;;;;;;;;;24.20;90.80;;;;;;5053733;28;20402;-70
2023/08/28 01:15:05;;;;;;;;;;;24.20;90.80;;;;;;5053400;28;20279;-71
2023/08/28 01:17:31;;;;;;;;;;;24.20;90.80;;;;;;5053687;28;19909;-71
2023/08/28 01:19:57;;;;;;;;;;;24.20;90.80;;;;;;5053688;28;20352;-71
2023/08/28 01:22:28;;;;;;;;;;;24.20;90.80;;;;;;5053310;28;19995;-70
2023/08/28 01:25:00;;;;;;;;;;;24.20;90.80;;;;;;5053387;28;19912;-70
2023/08/28 01:27:26;;;;;;;;;;;24.20;90.80;;;;;;5053637;28;19909;-70
2023/08/28 01:30:10;;;;;;;;;;;24.20;90.80;;;;;;5053433;28;19940;-69
2023/08/28 01:32:36;;;;;;;;;;;24.20;90.80;;;;;;5053510;28;20377;-71
2023/08/28 01:35:05;;;;;;;;;;;24.20;90.80;;;;;;5053175;28;20003;-69
2023/08/28 01:37:34;;;;;;;;;;;24.20;90.80;;;;;;5054889;28;19916;-72
2023/08/28 01:40:05;;;;;;;;;;;24.20;90.80;;;;;;5057463;28;19923;-71
2023/08/28 01:42:32;;;;;;;;;;;24.20;90.80;;;;;;5057237;28;20276;-70
2023/08/28 01:44:58;;;;;;;;;;;24.10;90.80;;;;;;5057125;28;19913;-70
2023/08/28 01:47:23;;;;;;;;;;;24.20;90.80;;;;;;5057143;28;19927;-71
2023/08/28 01:49:51;;;;;;;;;;;24.10;90.80;;;;;;5039271;28;19970;-70
2023/08/28 01:52:17;;;;;;;;;;;24.10;90.80;;;;;;5057573;28;19913;-71
2023/08/28 01:54:43;;;;;;;;;;;24.10;90.80;;;;;;5057176;28;19915;-71
2023/08/28 01:57:08;;;;;;;;;;;24.20;90.80;;;;;;5057104;28;19908;-70
2023/08/28 01:59:34;;;;;;;;;;;24.10;90.80;;;;;;5057105;28;20003;-71
2023/08/28 02:01:59;;;;;;;;;;;24.10;90.80;;;;;;5057073;28;20271;-71
2023/08/28 02:04:25;;;;;;;;;;;24.10;90.80;;;;;;5057324;28;19931;-71
2023/08/28 02:06:50;;;;;;;;;;;24.10;90.90;;;;;;5056710;28;20382;-72
2023/08/28 02:09:15;;;;;;;;;;;24.10;90.80;;;;;;5056895;28;19920;-71
2023/08/28 02:11:41;;;;;;;;;;;24.10;90.80;;;;;;5056628;28;19913;-71
2023/08/28 02:14:06;;;;;;;;;;;24.10;90.80;;;;;;5056888;28;19916;-72
2023/08/28 02:16:34;;;;;;;;;;;24.10;90.80;;;;;;5056545;28;20007;-74
2023/08/28 02:18:59;;;;;;;;;;;24.10;90.80;;;;;;5056709;28;20000;-69
2023/08/28 02:21:25;;;;;;;;;;;24.10;90.80;;;;;;5056653;28;19960;-70
2023/08/28 02:23:50;;;;;;;;;;;24.10;90.80;;;;;;5056327;28;19909;-70
2023/08/28 02:26:16;;;;;;;;;;;24.10;90.80;;;;;;5056609;28;20011;-71
2023/08/28 02:28:41;;;;;;;;;;;24.10;90.80;;;;;;5056181;28;20356;-72
2023/08/28 02:31:06;;;;;;;;;;;24.10;90.80;;;;;;5056446;28;19913;-71
2023/08/28 02:33:32;;;;;;;;;;;24.10;90.80;;;;;;5056520;28;20359;-71
2023/08/28 02:35:59;;;;;;;;;;;24.10;90.80;;;;;;5038550;28;19912;-71
2023/08/28 02:38:25;;;;;;;;;;;24.10;90.80;;;;;;5038363;28;19999;-70
2023/08/28 02:40:50;;;;;;;;;;;24.10;90.80;;;;;;5056356;28;19959;-70
2023/08/28 02:43:15;;;;;;;;;;;24.10;90.80;;;;;;5056097;28;19916;-71
2023/08/28 02:45:41;;;;;;;;;;;24.10;91.00;;;;;;5056270;28;19909;-71
2023/08/28 02:48:09;;;;;;;;;;;24.10;90.80;;;;;;5055794;28;19908;-70
2023/08/28 02:50:34;;;;;;;;;;;24.10;90.80;;;;;;5055529;28;20007;-72
2023/08/28 02:53:00;;;;;;;;;;;24.10;90.80;;;;;;5056209;28;20347;-73
2023/08/28 02:55:26;;;;;;;;;;;24.10;90.80;;;;;;5056147;28;20281;-74
2023/08/28 02:57:51;;;;;;;;;;;24.10;90.80;;;;;;5056179;28;19995;-72
2023/08/28 03:00:18;;;;;;;;;;;24.10;90.80;;;;;;5056066;28;19913;-72
2023/08/28 03:02:44;;;;;;;;;;;24.10;90.80;;;;;;5055759;28;19944;-71
2023/08/28 03:05:09;;;;;;;;;;;24.00;90.80;;;;;;5056063;28;19909;-71
2023/08/28 03:07:37;;;;;;;;;;;24.00;90.80;;;;;;5055863;28;20402;-73
2023/08/28 03:10:03;;;;;;;;;;;24.00;90.80;;;;;;5055485;28;19913;-73
2023/08/28 03:12:28;;;;;;;;;;;24.00;90.80;;;;;;5055793;28;19924;-73
2023/08/28 03:14:53;;;;;;;;;;;24.00;90.70;;;;;;5055780;28;19909;-72
2023/08/28 03:17:19;;;;;;;;;;;24.00;91.00;;;;;;5055683;28;19908;-72
2023/08/28 03:19:44;;;;;;;;;;;24.00;90.70;;;;;;5055460;28;19908;-73
2023/08/28 03:22:10;;;;;;;;;;;24.10;90.80;;;;;;5055363;28;20396;-72
2023/08/28 03:24:35;;;;;;;;;;;24.00;90.70;;;;;;5055312;28;20054;-72
2023/08/28 03:27:01;;;;;;;;;;;24.00;90.60;;;;;;5055276;28;19909;-73
2023/08/28 03:29:26;;;;;;;;;;;24.00;90.70;;;;;;5055076;28;19917;-72
2023/08/28 03:31:52;;;;;;;;;;;24.00;90.70;;;;;;5055077;28;19952;-72
2023/08/28 03:34:17;;;;;;;;;;;24.00;90.80;;;;;;5055083;28;19913;-72
2023/08/28 03:36:42;;;;;;;;;;;24.00;90.80;;;;;;5055058;28;19975;-73
2023/08/28 03:39:08;;;;;;;;;;;24.00;90.70;;;;;;5054939;28;19948;-71
2023/08/28 03:41:33;;;;;;;;;;;24.00;90.80;;;;;;5055301;28;20323;-73
2023/08/28 03:43:59;;;;;;;;;;;24.00;90.80;;;;;;5055131;28;20007;-73
2023/08/28 03:46:24;;;;;;;;;;;24.00;90.80;;;;;;5054872;28;20275;-73
2023/08/28 03:48:50;;;;;;;;;;;24.00;90.70;;;;;;5054807;28;19913;-73
2023/08/28 03:51:15;;;;;;;;;;;24.00;90.70;;;;;;5054794;28;19935;-73
2023/08/28 03:53:41;;;;;;;;;;;24.00;90.70;;;;;;5054966;28;20390;-74
2023/08/28 03:56:06;;;;;;;;;;;24.00;90.60;;;;;;5054989;28;19908;-74
2023/08/28 03:58:32;;;;;;;;;;;24.00;90.70;;;;;;5054911;28;19917;-73
2023/08/28 04:00:57;;;;;;;;;;;24.00;90.70;;;;;;5054817;28;20380;-74
2023/08/28 04:03:23;;;;;;;;;;;24.00;90.70;;;;;;5054881;28;19909;-74
2023/08/28 04:05:48;;;;;;;;;;;24.00;90.60;;;;;;5054832;28;19955;-73
2023/08/28 04:08:14;;;;;;;;;;;23.90;90.60;;;;;;5054285;28;19909;-72
2023/08/28 04:10:40;;;;;;;;;;;23.90;90.70;;;;;;5054741;28;19912;-73
2023/08/28 04:13:06;;;;;;;;;;;23.90;90.70;;;;;;5054722;28;19955;-73
2023/08/28 04:15:31;;;;;;;;;;;23.90;90.70;;;;;;5054566;28;19986;-72
2023/08/28 04:17:59;;;;;;;;;;;23.90;90.70;;;;;;5054134;28;19913;-72
2023/08/28 04:20:25;;;;;;;;;;;23.90;90.70;;;;;;5054834;28;19909;-74
2023/08/28 04:22:50;;;;;;;;;;;23.90;90.60;;;;;;5054159;28;19962;-74
2023/08/28 04:25:16;;;;;;;;;;;23.90;90.50;;;;;;5036655;28;20003;-71
2023/08/28 04:27:41;;;;;;;;;;;23.90;90.40;;;;;;5054409;28;19916;-71
2023/08/28 04:30:07;;;;;;;;;;;23.90;90.40;;;;;;5054031;28;20142;-73
2023/08/28 04:32:33;;;;;;;;;;;23.90;90.50;;;;;;5036408;28;19913;-73
2023/08/28 04:34:59;;;;;;;;;;;23.90;90.50;;;;;;5053938;28;20382;-73
2023/08/28 04:37:25;;;;;;;;;;;23.90;90.50;;;;;;5054211;28;19944;-73
2023/08/28 04:39:51;;;;;;;;;;;23.90;90.50;;;;;;5053821;28;19909;-73
2023/08/28 04:42:16;;;;;;;;;;;23.90;90.60;;;;;;5054140;28;19915;-72
2023/08/28 04:44:42;;;;;;;;;;;23.90;90.50;;;;;;5054057;28;20344;-71
2023/08/28 04:47:07;;;;;;;;;;;23.80;90.50;;;;;;5053686;28;20016;-73
2023/08/28 04:49:33;;;;;;;;;;;23.80;90.30;;;;;;5053723;28;19917;-73
2023/08/28 04:51:58;;;;;;;;;;;23.90;90.40;;;;;;5053692;28;19995;-72
2023/08/28 04:54:23;;;;;;;;;;;23.80;90.40;;;;;;5053946;28;19963;-72
2023/08/28 04:56:49;;;;;;;;;;;23.80;90.40;;;;;;5053519;28;20371;-72
2023/08/28 04:59:14;;;;;;;;;;;23.80;90.40;;;;;;5054162;28;19916;-73
2023/08/28 05:01:40;;;;;;;;;;;23.80;90.40;;;;;;5053795;28;19909;-71
2023/08/28 05:04:06;;;;;;;;;;;23.80;90.40;;;;;;5053605;28;19909;-73
2023/08/28 05:06:32;;;;;;;;;;;23.80;90.40;;;;;;5053712;28;19991;-73
2023/08/28 05:08:57;;;;;;;;;;;23.80;90.40;;;;;;5053349;28;20427;-74
2023/08/28 05:11:23;;;;;;;;;;;23.80;90.50;;;;;;5053367;28;19952;-73
2023/08/28 05:13:48;;;;;;;;;;;23.80;90.40;;;;;;5053489;28;19909;-73
2023/08/28 05:16:14;;;;;;;;;;;23.80;90.40;;;;;;5053743;28;20364;-71
2023/08/28 05:18:39;;;;;;;;;;;23.80;90.40;;;;;;5053713;28;19959;-73
2023/08/28 05:21:05;;;;;;;;;;;23.80;90.40;;;;;;5053372;28;19916;-73
2023/08/28 05:23:31;;;;;;;;;;;23.80;90.40;;;;;;5053337;28;19913;-73
2023/08/28 05:25:56;;;;;;;;;;;23.80;90.40;;;;;;5053309;28;20059;-73
2023/08/28 05:28:22;;;;;;;;;;;23.70;90.30;;;;;;5053211;28;19931;-74
2023/08/28 05:30:47;;;;;;;;;;;23.70;90.40;;;;;;5053564;28;19921;-71
2023/08/28 05:33:13;;;;;;;;;;;23.70;90.50;;;;;;5053689;28;19984;-71
2023/08/28 05:35:39;;;;;;;;;;;23.70;90.40;;;;;;5053367;28;19916;-74
2023/08/28 05:38:04;;;;;;;;;;;23.70;90.40;;;;;;5053704;28;19995;-73
2023/08/28 05:40:30;;;;;;;;;;;23.70;90.40;;;;;;5035634;28;19913;-74
2023/08/28 05:42:56;;;;;;;;;;;23.70;90.40;;;;;;5053159;28;19951;-74
2023/08/28 05:45:21;;;;;;;;;;;23.70;90.50;;;;;;5053290;28;19964;-73
2023/08/28 05:47:47;;;;;;;;;;;23.70;90.50;;;;;;5052941;28;19921;-73
2023/08/28 05:50:12;;;;;;;;;;;23.70;90.40;;;;;;5053369;28;19960;-72
2023/08/28 05:52:38;;;;;;;;;;;23.70;90.30;;;;;;5053372;28;19959;-74
2023/08/28 05:55:06;;;;;;;;;;;23.70;90.30;;;;;;5035333;28;19970;-73
2023/08/28 05:57:33;;;;;;;;;;;23.70;90.40;;;;;;5052988;28;19999;-74
2023/08/28 05:59:58;;;;;;;;;;;23.70;90.40;;;;;;5035409;28;19913;-74
2023/08/28 06:02:23;;;;;;;;;;;23.70;90.60;;;;;;5053042;28;19976;-73
2023/08/28 06:04:51;;;;;;;;;;;23.70;90.60;;;;;;5053227;28;20046;-72
2023/08/28 06:07:16;;;;;;;;;;;23.70;90.50;;;;;;5052891;28;19995;-72
2023/08/28 06:09:42;;;;;;;;;;;23.70;90.50;;;;;;5053331;28;20029;-70
2023/08/28 06:12:07;;;;;;;;;;;23.70;90.50;;;;;;5053302;28;19971;-73
2023/08/28 06:14:33;;;;;;;;;;;23.70;90.50;;;;;;5053182;28;19909;-74
2023/08/28 06:16:59;;;;;;;;;;;23.70;90.50;;;;;;5052711;28;20279;-75
2023/08/28 06:19:25;;;;;;;;;;;23.60;90.50;;;;;;5053176;28;19984;-74
2023/08/28 06:21:50;;;;;;;;;;;23.60;90.50;;;;;;5052666;28;19955;-75
2023/08/28 06:24:16;;;;;;;;;;;23.60;90.50;;;;;;5053819;28;19913;-75
2023/08/28 06:26:42;;;;;;;;;;;23.60;90.30;;;;;;5038134;28;19909;-74
2023/08/28 06:29:07;;;;;;;;;;;23.60;90.30;;;;;;5056257;28;20379;-74
2023/08/28 06:31:33;;;;;;;;;;;23.60;90.30;;;;;;5056792;28;19939;-75
2023/08/28 06:33:58;;;;;;;;;;;23.60;90.30;;;;;;5056517;28;19944;-73
2023/08/28 06:36:24;;;;;;;;;;;23.60;90.40;;;;;;5056239;28;19909;-74
2023/08/28 06:38:52;;;;;;;;;;;23.60;90.70;;;;;;5056456;28;19913;-75
2023/08/28 06:41:18;;;;;;;;;;;23.60;90.40;;;;;;5056188;28;19913;-75
2023/08/28 06:43:44;;;;;;;;;;;23.60;90.40;;;;;;5056402;28;19966;-74
2023/08/28 06:46:09;;;;;;;;;;;23.60;90.60;;;;;;5055988;28;19920;-75
2023/08/28 06:48:35;;;;;;;;;;;23.60;90.40;;;;;;5056093;28;20066;-75
2023/08/28 06:51:00;;;;;;;;;;;23.60;90.40;;;;;;5056057;28;19913;-75
2023/08/28 06:53:26;;;;;;;;;;;23.60;90.30;;;;;;5056116;28;19916;-74
2023/08/28 06:55:51;;;;;;;;;;;23.60;90.40;;;;;;5055994;28;19948;-74
2023/08/28 06:58:17;;;;;;;;;;;23.50;90.40;;;;;;5055743;28;19931;-74
2023/08/28 07:00:42;;;;;;;;;;;23.50;90.30;;;;;;5055862;28;19912;-75
2023/08/28 07:03:09;;;;;;;;;;;23.50;90.40;;;;;;5055648;28;19912;-74
2023/08/28 07:05:34;;;;;;;;;;;23.50;90.50;;;;;;5037923;28;20414;-75
2023/08/28 07:08:00;;;;;;;;;;;23.50;90.30;;;;;;5055821;28;19944;-75
2023/08/28 07:10:25;;;;;;;;;;;23.50;90.40;;;;;;5055734;28;19913;-75
2023/08/28 07:12:50;;;;;;;;;;;23.50;90.20;;;;;;5055585;28;19919;-74
2023/08/28 07:15:19;;;;;;;;;;;23.50;90.20;;;;;;5055440;28;20367;-76
2023/08/28 07:17:44;;;;;;;;;;;23.50;90.20;;;;;;5056002;28;19954;-73
2023/08/28 07:20:10;;;;;;;;;;;23.50;90.30;;;;;;5056040;28;20011;-74
2023/08/28 07:22:36;;;;;;;;;;;23.50;90.20;;;;;;5055289;28;19909;-74
2023/08/28 07:25:01;;;;;;;;;;;23.50;90.30;;;;;;5055866;28;20241;-74
2023/08/28 07:27:27;;;;;;;;;;;23.50;90.40;;;;;;5037563;28;19909;-74
2023/08/28 07:29:52;;;;;;;;;;;23.50;90.40;;;;;;5055051;28;19913;-74
2023/08/28 07:32:18;;;;;;;;;;;23.50;90.40;;;;;;5055451;28;19944;-72
2023/08/28 07:34:43;;;;;;;;;;;23.50;90.30;;;;;;5037005;28;19909;-75
2023/08/28 07:37:09;;;;;;;;;;;23.50;90.20;;;;;;5054867;28;19916;-75
2023/08/28 07:39:34;;;;;;;;;;;23.50;90.30;;;;;;5055201;28;20314;-75
2023/08/28 07:42:00;;;;;;;;;;;23.50;90.20;;;;;;5055183;28;20274;-74
2023/08/28 07:44:26;;;;;;;;;;;23.40;90.20;;;;;;5055364;28;19956;-74
2023/08/28 07:46:51;;;;;;;;;;;23.50;90.20;;;;;;5054740;28;20363;-75
2023/08/28 07:49:17;;;;;;;;;;;23.50;90.20;;;;;;5054816;28;19991;-75
2023/08/28 07:51:43;;;;;;;;;;;23.40;90.30;;;;;;5054487;28;19912;-75
2023/08/28 07:54:08;;;;;;;;;;;23.40;90.30;;;;;;5054654;28;20334;-74
2023/08/28 07:56:34;;;;;;;;;;;23.50;90.50;;;;;;5054631;28;20367;-75
2023/08/28 07:58:59;;;;;;;;;;;23.40;90.50;;;;;;5054672;28;19909;-75
2023/08/28 08:01:25;;;;;;;;;;;23.40;90.50;;;;;;5054501;28;19991;-74
2023/08/28 08:03:50;;;;;;;;;;;23.50;90.50;;;;;;5054797;28;19916;-74
2023/08/28 08:06:16;;;;;;;;;;;23.40;90.40;;;;;;5054749;28;19909;-74
2023/08/28 08:08:44;;;;;;;;;;;23.40;90.30;;;;;;5054528;28;20007;-75
2023/08/28 08:11:10;;;;;;;;;;;23.40;90.30;;;;;;5054638;28;19912;-75
2023/08/28 08:13:35;;;;;;;;;;;23.40;90.20;;;;;;5054693;28;20273;-75
2023/08/28 08:16:00;;;;;;;;;;;23.40;90.20;;;;;;5054709;28;20340;-75
2023/08/28 08:18:26;;;;;;;;;;;23.40;90.20;;;;;;5054469;28;19955;-73
2023/08/28 08:20:51;;;;;;;;;;;23.40;90.20;;;;;;5054473;28;19913;-74
2023/08/28 08:23:17;;;;;;;;;;;23.40;90.20;;;;;;5054280;28;20382;-73
2023/08/28 08:25:43;;;;;;;;;;;23.40;90.20;;;;;;5054290;28;19912;-74
2023/08/28 08:28:08;;;;;;;;;;;23.40;90.30;;;;;;5054174;28;19959;-74
2023/08/28 08:30:34;;;;;;;;;;;23.40;90.60;;;;;;5054127;28;19916;-74
2023/08/28 08:32:59;;;;;;;;;;;23.40;90.40;;;;;;5054145;28;19911;-74
2023/08/28 08:35:25;;;;;;;;;;;23.40;90.40;;;;;;5053907;28;20360;-74
2023/08/28 08:37:52;;;;;;;;;;;23.30;90.50;;;;;;5053903;28;19917;-75
2023/08/28 08:40:18;;;;;;;;;;;23.30;90.40;;;;;;5053995;28;19958;-74
2023/08/28 08:42:44;;;;;;;;;;;23.30;90.40;;;;;;5054216;28;20268;-74
2023/08/28 08:45:10;;;;;;;;;;;23.30;90.40;;;;;;5053654;28;19909;-73
2023/08/28 08:47:35;;;;;;;;;;;23.30;90.40;;;;;;5053378;28;19970;-75
2023/08/28 08:50:03;;;;;;;;;;;23.30;90.40;;;;;;5053989;28;20362;-74
2023/08/28 08:52:28;;;;;;;;;;;23.30;90.50;;;;;;5054310;28;20011;-75
2023/08/28 08:54:56;;;;;;;;;;;23.30;90.40;;;;;;5053666;28;19971;-74
2023/08/28 08:57:25;;;;;;;;;;;23.30;90.40;;;;;;5035964;28;19992;-73
2023/08/28 08:59:51;;;;;;;;;;;23.30;90.40;;;;;;5053511;28;20422;-74
2023/08/28 09:02:16;;;;;;;;;;;23.30;90.40;;;;;;5053788;28;19909;-68
2023/08/28 09:04:42;;;;;;;;;;;23.30;90.30;;;;;;5053802;28;19909;-74
2023/08/28 09:07:09;;;;;;;;;;;23.30;90.30;;;;;;5053709;28;20393;-74
2023/08/28 09:09:35;;;;;;;;;;;23.30;90.30;;;;;;5035631;28;20356;-74
2023/08/28 09:12:00;;;;;;;;;;;23.30;90.20;;;;;;5035322;28;19974;-73
2023/08/28 09:14:28;;;;;;;;;;;23.30;90.30;;;;;;5035697;28;19908;-74
2023/08/28 09:16:54;;;;;;;;;;;23.30;90.20;;;;;;5053398;28;19909;-75
2023/08/28 09:19:20;;;;;;;;;;;23.20;90.20;;;;;;5035683;28;19909;-74
2023/08/28 09:21:48;;;;;;;;;;;23.30;90.10;;;;;;5053368;28;19962;-75
2023/08/28 09:24:14;;;;;;;;;;;23.20;90.10;;;;;;5053556;28;19916;-75
2023/08/28 09:26:49;;;;;;;;;;;23.20;90.10;;;;;;5035727;28;20271;-75
2023/08/28 09:29:19;;;;;;;;;;;23.20;90.10;;;;;;5053675;28;20014;-75
2023/08/28 09:31:46;;;;;;;;;;;23.20;90.10;;;;;;5053384;28;20082;-73
2023/08/28 09:34:12;;;;;;;;;;;23.20;90.20;;;;;;5035669;28;19909;-73
2023/08/28 09:36:40;;;;;;;;;;;23.20;90.20;;;;;;5053422;28;19913;-73
2023/08/28 09:39:05;;;;;;;;;;;23.20;90.20;;;;;;5053418;28;19909;-73
2023/08/28 09:41:49;;;;;;;;;;;23.20;90.20;;;;;;5053417;28;19991;-75
2023/08/28 09:44:15;;;;;;;;;;;23.20;90.20;;;;;;5053570;28;19909;-73
2023/08/28 09:46:42;;;;;;;;;;;23.20;90.30;;;;;;5053231;28;20538;-74
2023/08/28 09:49:08;;;;;;;;;;;23.20;90.30;;;;;;5035536;28;19956;-73
2023/08/28 09:51:38;;;;;;;;;;;23.10;90.30;;;;;;5053106;28;19917;-71
2023/08/28 09:54:04;;;;;;;;;;;23.20;90.20;;;;;;5053351;28;20431;-72
2023/08/28 09:56:30;;;;;;;;;;;23.20;90.20;;;;;;5052837;28;20364;-73
2023/08/28 09:58:56;;;;;;;;;;;23.10;90.20;;;;;;5055391;28;19909;-71
2023/08/28 10:01:22;;;;;;;;;;;23.10;90.20;;;;;;5057082;28;19912;-70
2023/08/28 10:03:47;;;;;;;;;;;23.10;90.20;;;;;;5039173;28;19967;-67
2023/08/28 10:06:13;;;;;;;;;;;23.10;90.20;;;;;;5056567;28;19992;-72
2023/08/28 10:08:40;;;;;;;;;;;23.10;90.20;;;;;;5056550;28;20011;-72
2023/08/28 10:11:05;;;;;;;;;;;23.10;90.10;;;;;;5057275;28;19913;-72
2023/08/28 10:13:31;;;;;;;;;;;23.10;90.20;;;;;;5056838;28;20371;-73
2023/08/28 10:16:16;;;;;;;;;;;23.10;90.20;;;;;;5056326;28;20364;-73
2023/08/28 10:18:48;;;;;;;;;;;23.10;90.20;;;;;;5056757;28;20439;-73
2023/08/28 10:21:16;;;;;;;;;;;23.10;90.20;;;;;;5056769;28;19909;-72
2023/08/28 10:23:43;;;;;;;;;;;23.10;90.20;;;;;;5056676;28;20288;-73
2023/08/28 10:26:09;;;;;;;;;;;23.10;90.30;;;;;;5056660;28;19916;-72
2023/08/28 10:28:35;;;;;;;;;;;23.10;90.30;;;;;;5056599;28;19909;-71
2023/08/28 10:31:01;;;;;;;;;;;23.10;90.30;;;;;;5056613;28;20009;-73
2023/08/28 10:33:29;;;;;;;;;;;23.00;90.20;;;;;;5056189;28;20051;-72
2023/08/28 10:35:54;;;;;;;;;;;23.10;90.20;;;;;;5056668;28;19962;-71
2023/08/28 10:38:20;;;;;;;;;;;23.00;90.20;;;;;;5038514;28;19912;-71
2023/08/28 10:40:50;;;;;;;;;;;23.00;90.20;;;;;;5056185;28;19916;-73
2023/08/28 10:43:19;;;;;;;;;;;23.00;90.10;;;;;;5056043;28;19909;-74
2023/08/28 10:45:45;;;;;;;;;;;23.00;90.30;;;;;;5055857;28;20011;-72
2023/08/28 10:48:11;;;;;;;;;;;23.00;90.30;;;;;;5056241;28;19915;-73
2023/08/28 10:50:37;;;;;;;;;;;23.00;90.40;;;;;;5056198;28;20279;-74
2023/08/28 10:53:03;;;;;;;;;;;23.00;90.20;;;;;;5037958;28;19958;-74
2023/08/28 10:55:29;;;;;;;;;;;23.00;90.30;;;;;;5055884;28;19961;-72
2023/08/28 10:57:54;;;;;;;;;;;23.00;90.20;;;;;;5037935;28;19912;-72
2023/08/28 11:00:24;;;;;;;;;;;23.00;90.10;;;;;;5055940;28;19915;-73
2023/08/28 11:03:09;;;;;;;;;;;23.00;90.00;;;;;;5037678;28;20319;-72
2023/08/28 11:05:38;;;;;;;;;;;23.00;90.10;;;;;;5055670;28;20011;-72
2023/08/28 11:08:06;;;;;;;;;;;23.00;90.20;;;;;;5055672;28;20001;-74
2023/08/28 11:10:32;;;;;;;;;;;23.00;90.10;;;;;;5054789;28;19913;-75
2023/08/28 11:13:02;;;;;;;;;;;22.90;90.00;;;;;;5037989;28;20399;-75
2023/08/28 11:15:30;;;;;;;;;;;23.00;90.10;;;;;;5037765;28;19908;-74
2023/08/28 11:18:14;;;;;;;;;;;23.00;90.10;;;;;;5055341;28;19909;-72
2023/08/28 11:20:40;;;;;;;;;;;23.00;90.30;;;;;;5055651;28;19920;-73
2023/08/28 11:23:05;;;;;;;;;;;22.90;90.20;;;;;;5055176;28;19909;-73
2023/08/28 11:25:34;;;;;;;;;;;22.90;90.20;;;;;;5055185;28;19987;-75
2023/08/28 11:28:00;;;;;;;;;;;23.00;90.30;;;;;;5055487;28;19955;-73
2023/08/28 11:30:25;;;;;;;;;;;23.00;90.30;;;;;;5055112;28;19913;-72
2023/08/28 11:32:52;;;;;;;;;;;22.90;90.20;;;;;;5055180;28;19916;-72
2023/08/28 11:35:18;;;;;;;;;;;23.00;90.30;;;;;;5055271;28;19917;-73
2023/08/28 11:37:51;;;;;;;;;;;22.90;90.10;;;;;;5037343;28;20244;-72
2023/08/28 11:40:26;;;;;;;;;;;23.00;90.20;;;;;;5054680;28;20360;-74
2023/08/28 11:43:07;;;;;;;;;;;23.00;90.20;;;;;;5055106;28;19935;-74
2023/08/28 11:45:33;;;;;;;;;;;23.00;90.20;;;;;;5054740;28;20352;-74
2023/08/28 11:48:00;;;;;;;;;;;23.00;90.20;;;;;;5054034;28;19921;-74
2023/08/28 11:50:26;;;;;;;;;;;22.90;90.00;;;;;;5054937;28;20015;-74
2023/08/28 11:52:52;;;;;;;;;;;22.90;90.00;;;;;;5055197;28;19923;-74
2023/08/28 11:55:19;;;;;;;;;;;22.90;90.00;;;;;;5054683;28;19913;-74
2023/08/28 11:57:45;;;;;;;;;;;22.90;90.00;;;;;;5054793;28;20347;-73
2023/08/28 12:00:16;;;;;;;;;;;22.90;90.10;;;;;;5055088;28;19909;-74
2023/08/28 12:02:48;;;;;;;;;;;22.90;90.20;;;;;;5037061;28;19913;-74
2023/08/28 12:05:20;;;;;;;;;;;22.90;90.20;;;;;;5054275;28;19909;-74
2023/08/28 12:07:47;;;;;;;;;;;22.90;90.10;;;;;;5055196;28;20275;-73
2023/08/28 12:10:14;;;;;;;;;;;22.90;90.20;;;;;;5054210;28;19913;-74
2023/08/28 12:12:39;;;;;;;;;;;22.90;90.20;;;;;;5054349;28;19916;-73
2023/08/28 12:15:05;;;;;;;;;;;22.90;90.10;;;;;;5054093;28;19909;-73
2023/08/28 12:17:31;;;;;;;;;;;22.90;90.10;;;;;;5054173;28;19916;-73
2023/08/28 12:19:56;;;;;;;;;;;22.90;90.20;;;;;;5054086;28;19912;-73
2023/08/28 12:22:22;;;;;;;;;;;22.90;90.10;;;;;;5054532;28;19909;-71
2023/08/28 12:24:48;;;;;;;;;;;22.90;90.10;;;;;;5054074;28;20429;-73
2023/08/28 12:27:14;;;;;;;;;;;22.90;90.10;;;;;;5053876;28;19909;-74
2023/08/28 12:29:41;;;;;;;;;;;22.90;90.20;;;;;;5054058;28;19913;-74
2023/08/28 12:32:14;;;;;;;;;;;22.90;90.20;;;;;;5035935;28;19962;-74
2023/08/28 12:34:40;;;;;;;;;;;22.90;90.20;;;;;;5053777;28;19909;-74
2023/08/28 12:37:06;;;;;;;;;;;22.90;90.10;;;;;;5053540;28;19909;-74
2023/08/28 12:39:33;;;;;;;;;;;22.90;90.40;;;;;;5054065;28;19959;-75
2023/08/28 12:41:58;;;;;;;;;;;22.90;90.10;;;;;;5054103;28;19920;-74
2023/08/28 12:44:24;;;;;;;;;;;22.90;90.10;;;;;;5053676;28;20000;-74
2023/08/28 12:46:50;;;;;;;;;;;22.90;90.20;;;;;;5054001;28;19928;-73
2023/08/28 12:49:17;;;;;;;;;;;22.90;90.10;;;;;;5053923;28;19916;-73
2023/08/28 12:51:44;;;;;;;;;;;22.90;90.20;;;;;;5053191;28;21485;-73
2023/08/28 12:54:12;;;;;;;;;;;22.90;90.10;;;;;;5053913;28;19959;-73
2023/08/28 12:56:41;;;;;;;;;;;22.90;90.20;;;;;;5035919;28;20398;-74
2023/08/28 12:59:06;;;;;;;;;;;22.90;90.30;;;;;;5053824;28;19909;-74
2023/08/28 13:01:32;;;;;;;;;;;22.80;90.40;;;;;;5053863;28;20387;-74
2023/08/28 13:03:57;;;;;;;;;;;22.80;90.40;;;;;;5053748;28;20359;-74
2023/08/28 13:06:24;;;;;;;;;;;22.80;90.40;;;;;;5053406;28;19909;-72
2023/08/28 13:08:49;;;;;;;;;;;22.80;90.50;;;;;;5053706;28;20019;-75
2023/08/28 13:11:15;;;;;;;;;;;22.80;90.40;;;;;;5053448;28;20400;-74
2023/08/28 13:13:40;;;;;;;;;;;22.80;90.50;;;;;;5053307;28;20301;-73
2023/08/28 13:16:06;;;;;;;;;;;22.80;90.60;;;;;;5053325;28;20007;-73
2023/08/28 13:18:31;;;;;;;;;;;22.80;90.50;;;;;;5053330;28;19925;-73
2023/08/28 13:20:57;;;;;;;;;;;22.70;90.50;;;;;;5053023;28;19909;-74
2023/08/28 13:23:22;;;;;;;;;;;22.70;90.60;;;;;;5053503;28;19935;-71
2023/08/28 13:25:48;;;;;;;;;;;22.70;90.40;;;;;;5053087;28;19913;-74
2023/08/28 13:28:14;;;;;;;;;;;22.70;90.40;;;;;;5053103;28;19952;-74
2023/08/28 13:30:39;;;;;;;;;;;22.70;90.50;;;;;;5053259;28;20007;-72
2023/08/28 13:33:05;;;;;;;;;;;22.70;90.50;;;;;;5054324;28;19955;-76
2023/08/28 13:35:31;;;;;;;;;;;22.70;90.40;;;;;;5057401;28;19909;-74
2023/08/28 13:37:56;;;;;;;;;;;22.70;90.50;;;;;;5057406;28;20352;-72
2023/08/28 13:40:22;;;;;;;;;;;22.70;90.50;;;;;;5057871;28;19916;-74
2023/08/28 13:42:47;;;;;;;;;;;22.70;90.50;;;;;;5057356;28;19913;-75
2023/08/28 13:45:13;;;;;;;;;;;22.60;90.50;;;;;;5057019;28;19974;-76
2023/08/28 13:47:38;;;;;;;;;;;22.70;90.60;;;;;;5057444;28;19920;-72
2023/08/28 13:50:05;;;;;;;;;;;22.60;90.60;;;;;;5056908;28;19940;-74
2023/08/28 13:52:31;;;;;;;;;;;22.60;90.70;;;;;;5056975;28;20063;-74
2023/08/28 13:55:04;;;;;;;;;;;22.60;90.70;;;;;;5056760;28;20350;-74
2023/08/28 13:57:30;;;;;;;;;;;22.70;90.70;;;;;;5057006;28;20304;-74
2023/08/28 13:59:56;;;;;;;;;;;22.70;90.70;;;;;;5057061;28;19909;-72
2023/08/28 14:02:22;;;;;;;;;;;22.70;90.70;;;;;;5039204;28;19932;-74
2023/08/28 14:04:47;;;;;;;;;;;22.60;90.70;;;;;;5039051;28;19909;-75
2023/08/28 14:07:13;;;;;;;;;;;22.70;90.60;;;;;;5057003;28;19909;-76
2023/08/28 14:09:38;;;;;;;;;;;22.60;90.60;;;;;;5056496;28;20244;-75
2023/08/28 14:12:04;;;;;;;;;;;22.60;90.50;;;;;;5056786;28;19916;-77